Time;durP1;ratioP1;P1;durP2;ratioP2;P2;SDS_P1;SDS_P2;PMS_P1;PMS_P2;Temp;Humidity;BMP_temperature;BMP_pressure;BME280_temperature;BME280_humidity;BME280_pressure;Samples;Min_cycle;Max_cycle;Signal;HPM_P1;HPM_P2
2023/02/16 00:01:28;;;;;;;135.17;58.97;;;;;;;0.92;100.00;101510.66;4995564;57;1142949;-70
2023/02/16 00:06:34;;;;;;;126.18;59.65;;;;;;;0.88;100.00;101509.04;4995951;57;1142897;-70
2023/02/16 00:17:04;;;;;;;161.00;76.13;;;;;;;0.81;100.00;101501.80;5015470;57;1143169;-67
2023/02/16 00:22:10;;;;;;;151.13;72.70;;;;;;;0.78;100.00;101493.19;4978530;57;1143029;-68
2023/02/16 00:27:17;;;;;;;133.63;63.07;;;;;;;0.74;100.00;101491.12;4976700;56;1143072;-68
2023/02/16 00:32:23;;;;;;;128.47;61.83;;;;;;;0.73;100.00;101495.05;4991744;58;1143033;-70
2023/02/16 00:37:29;;;;;;;152.97;70.10;;;;;;;0.67;100.00;101494.28;4971730;58;1142941;-67
2023/02/16 00:42:36;;;;;;;138.13;61.90;;;;;;;0.52;100.00;101494.61;4971621;58;1142941;-69
2023/02/16 00:47:45;;;;;;;130.40;58.97;;;;;;;0.44;100.00;101487.41;4977103;57;1142947;-70
2023/02/16 00:52:53;;;;;;;125.93;59.03;;;;;;;0.43;100.00;101479.19;4996272;56;1143065;-70
2023/02/16 00:58:22;;;;;;;131.30;58.10;;;;;;;0.47;100.00;101467.80;4976055;57;1142950;-69
2023/02/16 01:03:30;;;;;;;137.37;61.42;;;;;;;0.46;100.00;101477.80;4976622;57;1143004;-68
2023/02/16 01:13:59;;;;;;;130.20;56.23;;;;;;;0.57;100.00;101460.69;4996912;56;1142885;-68
2023/02/16 01:19:05;;;;;;;124.40;58.80;;;;;;;0.61;100.00;101447.55;4977083;57;1142961;-68
2023/02/16 01:24:11;;;;;;;124.43;56.37;;;;;;;0.67;100.00;101450.03;5045488;57;1142931;-70
2023/02/16 01:29:21;;;;;;;192.30;85.27;;;;;;;0.66;100.00;101442.25;5039432;56;1142983;-67
2023/02/16 01:34:27;;;;;;;142.17;62.23;;;;;;;0.63;100.00;101432.75;4973193;56;1143075;-69
2023/02/16 01:39:35;;;;;;;127.37;56.10;;;;;;;0.65;100.00;101434.02;4972943;56;1142919;-67
2023/02/16 01:44:51;;;;;;;136.40;63.43;;;;;;;0.56;100.00;101423.83;5004454;57;1142963;-71
2023/02/16 01:49:57;;;;;;;136.60;59.50;;;;;;;0.56;100.00;101423.83;5043130;57;1142793;-69
2023/02/16 01:55:22;;;;;;;154.40;67.53;;;;;;;0.55;100.00;101428.17;5054769;57;1142878;-68
2023/02/16 02:00:56;;;;;;;146.07;64.47;;;;;;;0.55;100.00;101411.70;5054842;57;1142892;-67
2023/02/16 02:06:02;;;;;;;139.67;59.23;;;;;;;0.58;100.00;101409.89;5054759;57;1142901;-68
2023/02/16 02:11:16;;;;;;;138.40;64.87;;;;;;;0.65;100.00;101407.55;5074762;57;1142940;-69
2023/02/16 02:16:26;;;;;;;137.10;60.58;;;;;;;0.74;100.00;101397.39;5052640;57;1244955;-69
2023/02/16 02:27:28;;;;;;;137.80;57.17;;;;;;;0.77;100.00;101392.53;5054967;56;1143154;-67
2023/02/16 02:32:50;;;;;;;130.70;55.40;;;;;;;0.66;100.00;101395.39;4972834;57;1143201;-69
2023/02/16 02:38:12;;;;;;;131.17;56.17;;;;;;;0.53;100.00;101382.25;4991865;57;1142804;-71
2023/02/16 02:43:29;;;;;;;130.13;59.43;;;;;;;0.37;100.00;101392.14;4978371;57;1143034;-67
2023/02/16 02:48:35;;;;;;;132.10;58.53;;;;;;;0.29;100.00;101384.95;5054788;57;1152446;-69
2023/02/16 03:00:39;;;;;;;131.23;58.23;;;;;;;0.27;100.00;101395.39;5055003;57;1143089;-70
2023/02/16 03:04:30;;;;;;;132.13;58.37;;;;;;;0.23;100.00;101387.67;5054845;57;1142963;-67
2023/02/16 03:09:36;;;;;;;113.30;51.33;;;;;;;0.18;100.00;101381.27;5054749;57;1142942;-67
2023/02/16 03:14:50;;;;;;;121.63;54.03;;;;;;;0.23;100.00;101381.17;5054949;56;1143101;-71
2023/02/16 03:30:55;;;;;;;124.07;51.63;;;;;;;0.14;100.00;101389.19;4917593;55;1142884;-68
2023/02/16 03:36:01;;;;;;;119.67;47.50;;;;;;;0.08;100.00;101378.89;4896541;58;1142970;-70
2023/02/16 03:41:08;;;;;;;107.40;47.20;;;;;;;0.00;100.00;101376.47;4944391;57;1143110;-67
2023/02/16 03:46:14;;;;;;;112.08;47.40;;;;;;;-0.05;100.00;101386.95;4976017;57;1143209;-68
2023/02/16 03:51:19;;;;;;;109.57;48.37;;;;;;;-0.10;100.00;101386.17;4977117;56;1145140;-69
2023/02/16 03:56:25;;;;;;;104.73;42.37;;;;;;;-0.14;100.00;101385.81;4996012;57;1144910;-68
2023/02/16 04:01:32;;;;;;;102.50;42.23;;;;;;;-0.18;100.00;101395.03;4976735;56;1154606;-68
2023/02/16 04:06:38;;;;;;;106.77;47.03;;;;;;;-0.20;100.00;101390.30;4976672;57;1145296;-69
2023/02/16 04:17:08;;;;;;;115.13;47.43;;;;;;;-0.17;100.00;101385.91;4996088;57;1142913;-67
2023/02/16 04:22:15;;;;;;;116.00;48.35;;;;;;;-0.15;100.00;101373.70;4976621;56;1145206;-70
2023/02/16 04:27:21;;;;;;;111.23;45.77;;;;;;;-0.14;100.00;101375.42;4998847;57;1145550;-68
2023/02/16 04:32:29;;;;;;;104.33;44.00;;;;;;;-0.13;100.00;101365.44;4992091;57;1144923;-68
2023/02/16 04:37:35;;;;;;;106.90;45.43;;;;;;;-0.10;100.00;101367.98;5004874;56;1145296;-69
2023/02/16 04:42:42;;;;;;;106.07;43.85;;;;;;;-0.07;100.00;101360.56;5054642;57;1145000;-69
2023/02/16 04:47:48;;;;;;;101.57;45.23;;;;;;;-0.08;100.00;101357.55;5055314;57;1145085;-67
2023/02/16 04:52:53;;;;;;;111.87;47.53;;;;;;;-0.10;100.00;101353.68;5074606;56;1145174;-70
2023/02/16 04:57:59;;;;;;;105.37;44.03;;;;;;;-0.08;100.00;101340.65;5055100;57;1145185;-68
2023/02/16 05:03:05;;;;;;;106.90;45.77;;;;;;;-0.07;100.00;101344.96;5054502;57;1145022;-70
2023/02/16 05:08:11;;;;;;;105.93;45.97;;;;;;;-0.07;100.00;101350.16;5074797;56;1145100;-70
2023/02/16 05:18:40;;;;;;;98.12;42.55;;;;;;;-0.07;100.00;101344.96;5055240;56;1145068;-70
2023/02/16 05:23:46;;;;;;;103.55;45.30;;;;;;;-0.09;100.00;101341.53;5055766;56;1143135;-68
2023/02/16 05:28:52;;;;;;;99.77;42.63;;;;;;;-0.14;100.00;101345.52;5026189;56;1145061;-68
2023/02/16 05:33:59;;;;;;;99.00;42.67;;;;;;;-0.15;100.00;101346.84;4921497;57;1142906;-68
2023/02/16 05:39:05;;;;;;;106.87;42.03;;;;;;;-0.17;100.00;101346.05;4967892;57;1143111;-69
2023/02/16 05:44:13;;;;;;;92.90;39.93;;;;;;;-0.19;100.00;101345.22;4969825;57;1144836;-69
2023/02/16 05:49:19;;;;;;;92.97;39.73;;;;;;;-0.20;100.00;101356.50;4960984;57;1142882;-65
2023/02/16 05:54:26;;;;;;;99.40;44.60;;;;;;;-0.23;100.00;101353.95;4941231;57;1142856;-71
2023/02/16 05:59:32;;;;;;;96.10;42.27;;;;;;;-0.23;100.00;101359.16;4987508;57;1143050;-67
2023/02/16 06:04:37;;;;;;;98.77;42.47;;;;;;;-0.23;100.00;101357.41;5032827;57;1142965;-71
2023/02/16 06:09:43;;;;;;;97.53;41.93;;;;;;;-0.20;100.00;101353.91;4986954;57;1142959;-70
2023/02/16 06:14:49;;;;;;;94.07;42.50;;;;;;;-0.10;100.00;101352.37;4970129;57;1142757;-66
2023/02/16 06:19:55;;;;;;;93.53;40.97;;;;;;;0.02;100.00;101352.56;4897652;57;1142894;-70
2023/02/16 06:25:01;;;;;;;92.07;38.67;;;;;;;0.09;100.00;101357.20;4895376;57;1140793;-70
2023/02/16 06:30:08;;;;;;;93.23;40.73;;;;;;;0.04;100.00;101366.83;4972773;57;1140667;-70
2023/02/16 06:35:14;;;;;;;95.37;41.73;;;;;;;-0.05;100.00;101360.09;4960736;57;1140883;-69
2023/02/16 06:40:20;;;;;;;110.63;46.67;;;;;;;-0.04;100.00;101352.70;5059983;57;1142973;-67
2023/02/16 06:45:25;;;;;;;95.37;41.47;;;;;;;-0.06;100.00;101349.28;5033934;57;1144920;-69
2023/02/16 06:50:31;;;;;;;90.75;39.27;;;;;;;-0.14;100.00;101336.42;4993830;57;1143021;-67
2023/02/16 06:55:37;;;;;;;84.45;34.50;;;;;;;-0.18;100.00;101337.39;4946766;57;1142832;-67
2023/02/16 07:00:42;;;;;;;73.37;31.73;;;;;;;-0.22;100.00;101326.64;4943878;57;1143088;-67
2023/02/16 07:05:49;;;;;;;85.73;36.33;;;;;;;-0.18;100.00;101336.09;4942987;57;1142987;-68
2023/02/16 07:10:55;;;;;;;76.20;33.83;;;;;;;-0.14;100.00;101318.66;4997956;57;1143106;-67
2023/02/16 07:16:04;;;;;;;82.20;34.90;;;;;;;-0.11;100.00;101329.00;4878637;58;1142966;-69
2023/02/16 07:21:10;;;;;;;73.37;30.30;;;;;;;-0.05;100.00;101330.19;4929418;57;1143060;-66
2023/02/16 07:26:16;;;;;;;80.83;33.77;;;;;;;0.04;100.00;101327.38;4887544;57;1142981;-67
2023/02/16 07:31:25;;;;;;;85.40;35.87;;;;;;;0.07;100.00;101329.06;4882855;57;1141075;-66
2023/02/16 07:36:30;;;;;;;80.87;35.10;;;;;;;0.16;100.00;101324.95;4984321;57;1257507;-68
2023/02/16 07:41:36;;;;;;;86.57;37.78;;;;;;;0.25;100.00;101328.67;4975477;57;1171104;-69
2023/02/16 07:46:43;;;;;;;59.42;27.60;;;;;;;0.34;100.00;101326.70;4964773;57;1140869;-68
2023/02/16 07:51:50;;;;;;;68.52;30.00;;;;;;;0.43;100.00;101326.96;4992412;57;1140754;-69
2023/02/16 07:56:56;;;;;;;66.03;27.00;;;;;;;0.50;100.00;101321.15;4978834;57;1140980;-67
2023/02/16 08:02:02;;;;;;;74.10;33.23;;;;;;;0.60;100.00;101324.83;5051935;57;1140995;-69
2023/02/16 08:07:08;;;;;;;75.03;31.97;;;;;;;0.76;100.00;101320.55;5058008;57;1140972;-69
2023/02/16 08:12:15;;;;;;;86.43;34.73;;;;;;;0.96;100.00;101322.19;4931493;57;1141049;-66
2023/02/16 08:17:21;;;;;;;112.77;51.73;;;;;;;1.09;100.00;101337.05;4985315;57;1141086;-67
2023/02/16 08:22:28;;;;;;;126.50;60.17;;;;;;;1.21;100.00;101343.28;4987277;57;1217433;-69
2023/02/16 08:27:34;;;;;;;79.30;35.43;;;;;;;1.29;100.00;101342.17;4989449;57;1142964;-70
2023/02/16 08:32:41;;;;;;;76.20;30.07;;;;;;;1.38;100.00;101341.91;5054717;57;1183184;-69
2023/02/16 08:37:46;;;;;;;103.14;42.02;;;;;;;1.43;100.00;101337.03;5022637;57;1141056;-67
2023/02/16 08:42:53;;;;;;;81.50;31.53;;;;;;;1.51;100.00;101341.16;4971034;57;1206919;-66
2023/02/16 08:48:01;;;;;;;73.00;34.00;;;;;;;1.60;100.00;101336.98;4984933;57;1140869;-66
2023/02/16 08:53:06;;;;;;;91.57;34.37;;;;;;;1.71;100.00;101336.69;4992538;57;1140856;-70
2023/02/16 08:58:14;;;;;;;90.30;38.63;;;;;;;1.86;100.00;101344.07;5000772;57;1176850;-65
2023/02/16 09:03:21;;;;;;;76.77;31.80;;;;;;;2.01;100.00;101329.73;5024252;57;1140709;-69
2023/02/16 09:08:27;;;;;;;62.13;28.20;;;;;;;2.16;100.00;101329.28;5062939;56;1140925;-69
2023/02/16 09:13:36;;;;;;;87.27;37.23;;;;;;;2.28;100.00;101335.45;5020030;57;1141136;-69
2023/02/16 09:18:45;;;;;;;75.53;29.57;;;;;;;2.44;100.00;101337.97;4992955;57;1140918;-68
2023/02/16 09:23:53;;;;;;;61.73;29.13;;;;;;;2.59;100.00;101341.89;4964429;57;1141245;-67
2023/02/16 09:28:59;;;;;;;59.30;26.83;;;;;;;2.70;100.00;101340.23;5033919;56;1219259;-67
2023/02/16 09:34:18;;;;;;;54.83;25.27;;;;;;;2.80;100.00;101342.94;5063621;56;1140891;-69
2023/02/16 09:39:25;;;;;;;59.40;24.70;;;;;;;2.90;100.00;101335.23;5091394;56;1140972;-65
2023/02/16 09:44:47;;;;;;;62.20;27.23;;;;;;;2.98;100.00;101337.12;5037305;57;1140725;-67
2023/02/16 09:49:55;;;;;;;59.17;28.77;;;;;;;3.09;100.00;101324.99;4907994;56;1167744;-69
2023/02/16 09:55:07;;;;;;;56.67;25.67;;;;;;;3.19;100.00;101323.80;5043163;56;1141067;-69
2023/02/16 10:00:29;;;;;;;78.00;32.30;;;;;;;3.29;100.00;101324.31;4999910;56;1234251;-69
2023/02/16 10:06:09;;;;;;;60.23;28.50;;;;;;;3.37;100.00;101326.20;4954010;56;1235439;-68
2023/02/16 10:11:37;;;;;;;56.93;27.07;;;;;;;3.51;100.00;101326.11;4935898;56;1239900;-69
2023/02/16 10:16:48;;;;;;;62.33;26.40;;;;;;;3.63;100.00;101320.92;4946173;56;1244914;-67
2023/02/16 10:21:58;;;;;;;63.60;26.80;;;;;;;3.74;100.00;101312.22;5022042;56;1141081;-70
2023/02/16 10:27:09;;;;;;;60.17;27.53;;;;;;;3.88;100.00;101307.78;4966720;56;1140949;-69
2023/02/16 10:32:33;;;;;;;57.03;26.37;;;;;;;4.00;100.00;101302.53;5032879;56;1140821;-65
2023/02/16 10:38:01;;;;;;;117.00;37.98;;;;;;;4.13;100.00;101305.08;4987463;56;1141195;-69
2023/02/16 10:43:23;;;;;;;60.73;27.93;;;;;;;4.26;100.00;101303.72;5024054;57;1142811;-68
2023/02/16 10:48:29;;;;;;;52.23;24.40;;;;;;;4.37;100.00;101301.52;5024327;56;1140863;-69
2023/02/16 10:53:51;;;;;;;56.90;26.73;;;;;;;4.42;100.00;101298.73;4927663;57;1196653;-67
2023/02/16 10:58:57;;;;;;;51.97;25.50;;;;;;;4.49;100.00;101299.72;5023133;56;1140764;-69
2023/02/16 11:04:04;;;;;;;61.40;29.10;;;;;;;4.62;100.00;101288.28;5037265;56;1140870;-71
2023/02/16 11:09:12;;;;;;;56.93;26.83;;;;;;;4.73;100.00;101277.39;4921199;58;1141166;-68
2023/02/16 11:14:30;;;;;;;65.50;30.37;;;;;;;4.81;100.00;101269.59;4986791;56;1141002;-71
2023/02/16 11:19:40;;;;;;;75.30;30.87;;;;;;;4.93;100.00;101279.55;5048307;56;1141043;-70
2023/02/16 11:24:45;;;;;;;69.90;29.65;;;;;;;5.03;100.00;101270.86;5042658;56;1140981;-68
2023/02/16 11:29:55;;;;;;;65.90;29.42;;;;;;;5.19;100.00;101275.84;5021413;56;1140877;-67
2023/02/16 11:35:01;;;;;;;62.93;26.90;;;;;;;5.39;100.00;101274.95;5040210;56;1140820;-69
2023/02/16 11:40:20;;;;;;;55.17;28.90;;;;;;;5.66;100.00;101270.23;5039119;56;1140980;-69
2023/02/16 11:45:33;;;;;;;59.93;29.30;;;;;;;5.93;100.00;101265.09;4815668;59;1140923;-67
2023/02/16 11:50:43;;;;;;;62.15;30.00;;;;;;;6.19;100.00;101262.54;4831839;59;1141019;-68
2023/02/16 11:55:52;;;;;;;46.83;24.87;;;;;;;6.42;100.00;101250.91;4806754;59;1142977;-68
2023/02/16 12:01:23;;;;;;;69.10;31.03;;;;;;;6.69;100.00;101257.46;4806395;59;1141092;-68
2023/02/16 12:07:00;;;;;;;61.73;30.50;;;;;;;6.83;100.00;101248.03;4820655;58;1143119;-69
2023/02/16 12:12:22;;;;;;;57.23;30.47;;;;;;;6.99;100.00;101248.49;4824344;58;1140911;-71
2023/02/16 12:17:53;;;;;;;59.33;29.80;;;;;;;7.28;100.00;101228.57;4829054;58;1143012;-69
2023/02/16 12:23:18;;;;;;;58.03;29.73;;;;;;;7.34;100.00;101226.91;4885374;56;1140842;-71
2023/02/16 12:28:50;;;;;;;53.47;29.00;;;;;;;7.29;100.00;101221.06;5001841;56;1140899;-69
2023/02/16 12:34:32;;;;;;;58.97;28.43;;;;;;;7.41;100.00;101216.92;4965582;56;1142983;-70
2023/02/16 12:40:03;;;;;;;72.82;31.25;;;;;;;7.48;100.00;101215.67;4989256;56;1141029;-71
2023/02/16 12:45:20;;;;;;;55.53;29.80;;;;;;;7.64;100.00;101212.57;4992242;56;1143032;-68
2023/02/16 12:50:30;;;;;;;61.90;32.60;;;;;;;7.81;100.00;101210.80;5019491;56;1140842;-69
2023/02/16 12:55:55;;;;;;;54.53;29.90;;;;;;;7.97;100.00;101209.87;5061597;56;1140782;-70
2023/02/16 13:01:13;;;;;;;52.33;28.83;;;;;;;8.15;100.00;101215.90;4999244;56;1142886;-72
2023/02/16 13:06:45;;;;;;;52.37;27.47;;;;;;;8.18;100.00;101206.51;5036811;56;1141117;-69
2023/02/16 13:12:24;;;;;;;51.73;27.07;;;;;;;8.18;100.00;101197.29;5028689;56;1141011;-67
2023/02/16 13:17:46;;;;;;;62.27;29.27;;;;;;;8.29;100.00;101194.88;5034485;56;1140769;-70
2023/02/16 13:23:46;;;;;;;61.63;32.30;;;;;;;8.49;100.00;101190.28;4990491;56;1142989;-71
2023/02/16 13:29:05;;;;;;;57.08;28.10;;;;;;;8.60;100.00;101179.48;5071211;56;1142914;-70
2023/02/16 13:34:41;;;;;;;56.37;28.63;;;;;;;8.68;100.00;101176.41;4932083;57;1140960;-67
2023/02/16 13:40:09;;;;;;;57.45;29.23;;;;;;;8.72;100.00;101176.12;4957743;57;1140794;-70
2023/02/16 13:45:22;;;;;;;52.77;29.23;;;;;;;8.89;100.00;101176.44;4874768;57;1140924;-68
2023/02/16 13:50:32;;;;;;;55.60;29.95;;;;;;;9.05;100.00;101179.84;4906277;57;1141131;-67
2023/02/16 13:55:40;;;;;;;67.20;34.57;;;;;;;9.11;100.00;101174.20;4844424;57;1142893;-69
2023/02/16 14:00:49;;;;;;;62.90;34.13;;;;;;;9.24;100.00;101176.09;4853785;58;1143038;-70
2023/02/16 14:06:16;;;;;;;52.53;28.80;;;;;;;9.33;100.00;101167.59;4779140;59;1143022;-70
2023/02/16 14:11:22;;;;;;;72.37;33.75;;;;;;;9.35;100.00;101169.19;4790302;58;1143224;-71
2023/02/16 14:16:31;;;;;;;59.43;31.87;;;;;;;9.36;100.00;101166.94;4820503;58;1142781;-68
2023/02/16 14:21:50;;;;;;;64.63;32.57;;;;;;;9.50;100.00;101162.11;4775091;59;1143212;-72
2023/02/16 14:27:11;;;;;;;59.95;31.97;;;;;;;9.56;100.00;101156.92;4843656;58;1142944;-70
2023/02/16 14:32:32;;;;;;;90.00;38.57;;;;;;;9.74;100.00;101157.94;4688048;59;1142918;-69
2023/02/16 14:37:57;;;;;;;90.38;36.90;;;;;;;9.80;100.00;101164.59;4886605;57;1142933;-71
2023/02/16 14:43:13;;;;;;;70.67;31.90;;;;;;;9.54;100.00;101157.02;4903100;57;1141126;-71
2023/02/16 14:48:41;;;;;;;77.87;33.77;;;;;;;9.30;100.00;101155.45;4816708;57;1140823;-69
2023/02/16 14:54:22;;;;;;;78.35;35.78;;;;;;;9.20;100.00;101152.14;4777039;58;1140866;-69
2023/02/16 14:59:47;;;;;;;65.37;32.63;;;;;;;9.62;100.00;101145.52;4854514;57;1143034;-70
2023/02/16 15:04:53;;;;;;;101.53;44.10;;;;;;;10.12;100.00;101142.22;4861980;57;1143225;-71
2023/02/16 15:09:59;;;;;;;86.10;37.53;;;;;;;9.80;100.00;101150.06;4960124;56;1147151;-71
2023/02/16 15:15:12;;;;;;;67.65;36.00;;;;;;;9.48;100.00;101144.19;4964667;57;1143267;-72
2023/02/16 15:20:34;;;;;;;77.83;34.33;;;;;;;9.18;100.00;101135.92;4943994;57;1140885;-67
2023/02/16 15:25:41;;;;;;;68.42;35.08;;;;;;;9.03;100.00;101139.98;5007655;55;1143162;-71
2023/02/16 15:30:51;;;;;;;71.92;36.33;;;;;;;8.98;100.00;101132.36;5026532;57;1143109;-68
2023/02/16 15:36:00;;;;;;;72.42;37.15;;;;;;;8.91;100.00;101132.81;4995526;56;1142866;-71
2023/02/16 15:41:11;;;;;;;89.25;45.15;;;;;;;8.69;100.00;101124.91;4996274;57;1140777;-68
2023/02/16 15:46:32;;;;;;;61.67;33.83;;;;;;;8.51;100.00;101122.04;5056244;55;1143029;-69
2023/02/16 15:51:39;;;;;;;62.03;34.33;;;;;;;8.34;100.00;101128.77;5015539;56;1142884;-69
2023/02/16 15:56:58;;;;;;;68.10;34.60;;;;;;;8.16;100.00;101133.28;4960938;57;1141288;-71
2023/02/16 16:02:16;;;;;;;74.65;38.70;;;;;;;8.00;100.00;101130.69;5024932;56;1140989;-68
2023/02/16 16:07:42;;;;;;;80.77;40.40;;;;;;;7.90;100.00;101131.30;5068375;56;1143106;-69
2023/02/16 16:13:05;;;;;;;79.57;39.27;;;;;;;7.78;100.00;101130.22;4825426;57;1140942;-71
2023/02/16 16:24:46;;;;;;;98.37;46.87;;;;;;;7.59;100.00;101138.28;4841674;58;1142949;-70
2023/02/16 16:30:28;;;;;;;94.40;43.63;;;;;;;7.51;100.00;101135.21;4685270;59;1141444;-69
2023/02/16 16:35:50;;;;;;;76.90;41.13;;;;;;;7.41;100.00;101138.83;4563253;61;1141017;-70
2023/02/16 16:41:49;;;;;;;;;;;;;;;;;;;;;
2023/02/16 16:46:58;;;;;;;72.87;39.23;;;;;;;7.24;100.00;101145.46;4679817;59;1143095;-71
2023/02/16 16:52:11;;;;;;;73.40;40.83;;;;;;;7.15;100.00;101139.39;4684229;58;1141105;-71
2023/02/16 16:57:19;;;;;;;78.23;41.30;;;;;;;7.07;100.00;101129.73;4661682;61;1143124;-74
2023/02/16 17:02:25;;;;;;;84.30;41.77;;;;;;;6.92;100.00;101121.34;4729651;60;1140902;-76
2023/02/16 17:07:32;;;;;;;85.90;39.20;;;;;;;6.87;100.00;101132.58;4768519;59;1140899;-73
2023/02/16 17:12:37;;;;;;;75.93;41.30;;;;;;;6.81;100.00;101129.80;4863393;58;1143077;-74
2023/02/16 17:17:49;;;;;;;113.67;60.90;;;;;;;6.74;100.00;101125.77;4926189;59;1140763;-70
2023/02/16 17:23:03;;;;;;;69.77;38.70;;;;;;;6.66;100.00;101131.91;4888338;57;1143026;-70
2023/02/16 17:28:05;;;;;;;105.52;62.45;;;;;;;6.59;100.00;101130.51;4888950;57;1142838;-70
2023/02/16 17:33:13;;;;;;;70.07;39.50;;;;;;;6.52;100.00;101138.34;4939556;57;1142855;-74
2023/02/16 17:38:23;;;;;;;86.43;42.43;;;;;;;6.46;100.00;101131.60;4948585;57;1140924;-72
2023/02/16 17:43:34;;;;;;;73.40;38.57;;;;;;;6.45;100.00;101142.19;4897222;58;1142884;-69
2023/02/16 17:48:58;;;;;;;70.70;37.33;;;;;;;6.39;100.00;101139.89;4962692;57;1140936;-70
2023/02/16 17:54:10;;;;;;;60.73;33.00;;;;;;;6.33;100.00;101143.20;5040645;56;1141133;-69
2023/02/16 17:59:18;;;;;;;104.17;56.67;;;;;;;6.33;100.00;101142.34;5062275;57;1143215;-69
2023/02/16 18:04:24;;;;;;;91.70;48.33;;;;;;;6.31;100.00;101142.42;5082344;57;1144913;-69
2023/02/16 18:09:30;;;;;;;92.57;45.00;;;;;;;6.28;100.00;101149.13;5054227;56;1141029;-69
2023/02/16 18:14:36;;;;;;;83.73;41.50;;;;;;;6.24;100.00;101150.70;4991201;58;1140921;-67
2023/02/16 18:19:42;;;;;;;78.47;40.90;;;;;;;6.23;100.00;101146.38;4971309;58;1142877;-68
2023/02/16 18:24:48;;;;;;;167.67;94.30;;;;;;;6.21;100.00;101144.28;5027445;55;1142964;-67
2023/02/16 18:29:54;;;;;;;129.13;72.80;;;;;;;6.19;100.00;101140.88;5057787;55;1145077;-70
2023/02/16 18:35:00;;;;;;;142.50;71.77;;;;;;;6.15;100.00;101136.69;5036265;55;1142892;-69
2023/02/16 18:40:09;;;;;;;168.13;76.87;;;;;;;6.08;100.00;101136.16;5039869;55;1142875;-69
2023/02/16 18:45:15;;;;;;;127.20;63.83;;;;;;;6.07;100.00;101135.77;5043503;55;1144891;-67
2023/02/16 18:50:21;;;;;;;106.20;52.37;;;;;;;6.08;100.00;101132.22;5040650;55;1144954;-68
2023/02/16 18:55:31;;;;;;;119.77;62.90;;;;;;;6.08;100.00;101129.59;5020516;56;1145090;-69
2023/02/16 19:00:37;;;;;;;125.40;64.43;;;;;;;6.06;100.00;101121.40;5039013;56;1142908;-68
2023/02/16 19:05:45;;;;;;;146.33;74.83;;;;;;;6.02;100.00;101115.90;5021123;56;1142888;-68
2023/02/16 19:10:51;;;;;;;142.07;71.60;;;;;;;6.00;100.00;101119.91;4976059;56;1145061;-69
2023/02/16 19:15:58;;;;;;;78.57;40.43;;;;;;;5.96;100.00;101117.04;5032787;56;1143065;-67
2023/02/16 19:21:10;;;;;;;70.80;35.15;;;;;;;5.89;100.00;101120.91;5028033;56;1140908;-69
2023/02/16 19:26:17;;;;;;;92.40;47.27;;;;;;;5.88;100.00;101122.68;5030677;56;1142871;-69
2023/02/16 19:31:29;;;;;;;97.27;49.57;;;;;;;5.85;100.00;101116.69;5050470;57;1140856;-70
2023/02/16 19:36:35;;;;;;;83.63;41.47;;;;;;;5.82;100.00;101118.99;5030746;56;1140895;-69
2023/02/16 19:41:43;;;;;;;74.63;37.83;;;;;;;5.83;100.00;101109.34;5030552;56;1140879;-70
2023/02/16 19:46:50;;;;;;;74.60;37.80;;;;;;;5.84;100.00;101113.67;5038987;56;1143008;-68
2023/02/16 19:51:55;;;;;;;67.67;38.20;;;;;;;5.81;100.00;101117.75;5060532;56;1145807;-66
2023/02/16 19:57:03;;;;;;;72.12;40.60;;;;;;;5.79;100.00;101112.61;5072068;56;1141184;-68
2023/02/16 20:02:14;;;;;;;71.27;37.07;;;;;;;5.79;100.00;101111.75;4999035;56;1142843;-67
2023/02/16 20:07:19;;;;;;;73.83;37.47;;;;;;;5.78;100.00;101113.53;4950939;57;1140867;-69
2023/02/16 20:12:27;;;;;;;67.43;34.43;;;;;;;5.76;100.00;101108.81;4981780;56;1140826;-70
2023/02/16 20:17:33;;;;;;;66.67;33.90;;;;;;;5.78;100.00;101103.03;4981132;56;1142992;-66
2023/02/16 20:22:39;;;;;;;77.37;38.60;;;;;;;5.78;100.00;101103.03;4974542;56;1140880;-71
2023/02/16 20:27:47;;;;;;;62.77;31.07;;;;;;;5.78;100.00;101104.80;5046263;56;1141120;-69
2023/02/16 20:32:53;;;;;;;67.77;34.97;;;;;;;5.79;100.00;101103.88;4981908;55;1140837;-69
2023/02/16 20:37:59;;;;;;;74.15;37.75;;;;;;;5.80;100.00;101106.89;4980457;56;1140955;-68
2023/02/16 20:43:06;;;;;;;136.20;55.97;;;;;;;5.82;100.00;101101.08;4997103;57;1141026;-69
2023/02/16 20:48:13;;;;;;;412.27;141.15;;;;;;;5.87;100.00;101104.34;4979468;57;1145005;-70
2023/02/16 20:53:19;;;;;;;254.90;77.50;;;;;;;5.90;100.00;101106.86;4981126;57;1145032;-68
2023/02/16 20:58:25;;;;;;;437.23;128.30;;;;;;;5.91;100.00;101113.34;5042749;56;1143057;-69
2023/02/16 21:03:31;;;;;;;357.13;92.07;;;;;;;5.92;100.00;101113.73;5052830;57;1145296;-71
2023/02/16 21:08:36;;;;;;;318.60;70.87;;;;;;;5.97;100.00;101113.49;5053743;56;1145087;-70
2023/02/16 21:13:43;;;;;;;231.03;59.40;;;;;;;5.99;100.00;101108.56;5053746;57;1144969;-67
2023/02/16 21:18:49;;;;;;;117.33;45.03;;;;;;;5.97;100.00;101113.03;5073776;57;1142780;-71
2023/02/16 21:23:55;;;;;;;333.90;76.83;;;;;;;5.96;100.00;101107.85;5075136;55;1142889;-70
2023/02/16 21:29:01;;;;;;;160.57;51.58;;;;;;;5.97;100.00;101106.93;5030352;56;1145028;-67
2023/02/16 21:34:07;;;;;;;98.12;38.48;;;;;;;5.95;100.00;101100.47;5042581;56;1143039;-68
2023/02/16 21:39:14;;;;;;;65.50;30.20;;;;;;;5.93;100.00;101088.34;4930617;56;1140956;-68
2023/02/16 21:44:19;;;;;;;85.87;33.70;;;;;;;5.92;100.00;101087.95;4980088;56;1142881;-70
2023/02/16 21:49:25;;;;;;;87.53;35.40;;;;;;;5.90;100.00;101078.83;4989466;56;1143120;-69
2023/02/16 21:59:38;;;;;;;58.03;27.63;;;;;;;5.87;100.00;101070.22;4978794;55;1143088;-70
2023/02/16 22:04:44;;;;;;;55.65;25.30;;;;;;;5.89;100.00;101061.38;5054589;56;1142980;-68
2023/02/16 22:09:51;;;;;;;54.93;28.27;;;;;;;5.92;100.00;101067.80;4990560;56;1143040;-67
2023/02/16 22:14:57;;;;;;;49.47;23.77;;;;;;;5.91;100.00;101063.47;4959049;55;1140867;-69
2023/02/16 22:20:04;;;;;;;51.83;25.85;;;;;;;5.92;100.00;101049.88;4958940;56;1140787;-70
2023/02/16 22:25:11;;;;;;;51.42;26.00;;;;;;;5.93;100.00;101046.33;4977502;56;1142944;-68
2023/02/16 22:30:17;;;;;;;47.10;24.33;;;;;;;5.94;100.00;101042.78;4957411;55;1140847;-67
2023/02/16 22:35:23;;;;;;;64.23;27.13;;;;;;;5.94;100.00;101037.07;4958951;55;1141003;-69
2023/02/16 22:40:28;;;;;;;69.67;28.33;;;;;;;5.95;100.00;101036.15;4965292;57;1142834;-67
2023/02/16 22:45:34;;;;;;;73.90;29.17;;;;;;;5.94;100.00;101038.84;4917920;57;1140770;-69
2023/02/16 22:50:41;;;;;;;57.67;25.57;;;;;;;5.93;100.00;101029.27;4957655;57;1140984;-70
2023/02/16 22:55:47;;;;;;;59.90;26.55;;;;;;;5.96;100.00;101018.59;4939603;57;1143022;-69
2023/02/16 23:00:54;;;;;;;196.47;65.07;;;;;;;5.95;100.00;101019.55;4894504;58;1140926;-69
2023/02/16 23:06:00;;;;;;;90.40;33.20;;;;;;;5.95;100.00;101019.08;4980361;57;1143003;-70
2023/02/16 23:11:06;;;;;;;52.17;23.83;;;;;;;5.98;100.00;101012.34;4977387;57;1143112;-68
2023/02/16 23:16:18;;;;;;;50.10;24.97;;;;;;;6.04;100.00;101013.81;4991877;57;1142938;-68
2023/02/16 23:21:30;;;;;;;41.30;23.27;;;;;;;6.05;100.00;100997.59;4983904;56;1143125;-69
2023/02/16 23:26:36;;;;;;;43.23;21.23;;;;;;;6.08;100.00;101002.70;5064914;56;1140741;-70
2023/02/16 23:31:45;;;;;;;43.17;23.07;;;;;;;6.11;100.00;101005.99;4990568;57;1142986;-69
2023/02/16 23:36:51;;;;;;;45.43;22.37;;;;;;;6.12;100.00;101008.16;5000997;56;1140865;-71
2023/02/16 23:41:57;;;;;;;50.23;26.07;;;;;;;6.13;100.00;101013.33;5013341;56;1141020;-67
2023/02/16 23:47:02;;;;;;;78.13;28.70;;;;;;;6.14;100.00;101005.84;4997353;56;1143024;-68
2023/02/16 23:52:08;;;;;;;59.85;25.37;;;;;;;6.17;100.00;101015.34;5000192;56;1142945;-66